createdAt,value
2019-01-19T00:01:57.344Z,1.20
2019-01-19T00:04:34.989Z,1.10
2019-01-19T00:07:12.383Z,1.20
2019-01-19T00:09:46.698Z,1.10
2019-01-19T00:12:33.584Z,1.10
2019-01-19T00:15:03.343Z,1.10
2019-01-19T00:17:49.939Z,1.10
2019-01-19T00:20:30.761Z,1.00
2019-01-19T00:23:14.605Z,1.00
2019-01-19T00:26:09.967Z,1.00
2019-01-19T00:28:50.408Z,1.00
2019-01-19T00:31:48.876Z,1.10
2019-01-19T00:34:38.351Z,1.10
2019-01-19T00:37:15.913Z,1.00
2019-01-19T00:39:55.868Z,1.00
2019-01-19T00:42:36.878Z,0.90
2019-01-19T00:45:08.600Z,1.10
2019-01-19T00:47:48.966Z,1.00
2019-01-19T00:50:29.554Z,0.50
2019-01-19T00:53:04.343Z,0.60
2019-01-19T00:55:52.428Z,0.80
2019-01-19T00:58:26.674Z,0.40
2019-01-19T01:01:09.664Z,0.70
2019-01-19T01:03:46.921Z,0.60
2019-01-19T01:06:24.740Z,0.80
2019-01-19T01:09:08.374Z,0.90
2019-01-19T01:11:40.098Z,0.60
2019-01-19T01:14:28.096Z,0.60
2019-01-19T01:17:02.882Z,0.50
2019-01-19T01:19:55.533Z,0.70
2019-01-19T01:22:29.698Z,0.70
2019-01-19T01:25:04.746Z,0.70
2019-01-19T01:27:42.410Z,0.60
2019-01-19T01:30:29.146Z,0.70
2019-01-19T01:33:12.100Z,0.60
2019-01-19T01:36:06.350Z,0.50
2019-01-19T01:38:46.738Z,0.50
2019-01-19T01:41:51.679Z,0.60
2019-01-19T01:44:45.989Z,0.60
2019-01-19T01:47:35.838Z,0.70
2019-01-19T01:50:19.520Z,0.70
2019-01-19T01:53:02.930Z,0.60
2019-01-19T01:55:34.666Z,0.60
2019-01-19T01:58:09.196Z,0.50
2019-01-19T02:00:49.802Z,0.70
2019-01-19T02:03:42.615Z,0.70
2019-01-19T02:06:29.342Z,0.80
2019-01-19T02:09:09.550Z,0.90
2019-01-19T02:11:57.866Z,0.80
2019-01-19T02:14:29.514Z,0.80
2019-01-19T02:17:06.768Z,0.60
2019-01-19T02:19:57.812Z,0.60
2019-01-19T02:22:37.837Z,0.80
2019-01-19T02:25:27.686Z,0.70
2019-01-19T02:28:14.360Z,0.70
2019-01-19T02:30:57.871Z,0.80
2019-01-19T02:33:44.623Z,0.80
2019-01-19T02:36:21.895Z,0.40
2019-01-19T02:39:12.991Z,0.30
2019-01-19T02:41:47.458Z,0.40
2019-01-19T02:44:19.138Z,0.70
2019-01-19T02:46:56.479Z,0.40
2019-01-19T02:49:40.110Z,0.70
2019-01-19T02:52:17.432Z,0.80
2019-01-19T02:55:08.630Z,0.70
2019-01-19T02:57:46.261Z,0.70
2019-01-19T03:00:32.739Z,0.70
2019-01-19T03:03:20.663Z,0.60
2019-01-19T03:05:57.964Z,0.60
2019-01-19T03:08:35.586Z,0.50
2019-01-19T03:11:13.010Z,0.60
2019-01-19T03:13:47.101Z,0.60
2019-01-19T03:16:24.816Z,0.60
2019-01-19T03:19:11.270Z,0.60
2019-01-19T03:21:58.202Z,0.50
2019-01-19T03:24:35.883Z,0.40
2019-01-19T03:27:13.607Z,0.50
2019-01-19T03:30:00.363Z,0.40
2019-01-19T03:32:34.610Z,0.50
2019-01-19T03:35:15.300Z,0.60
2019-01-19T03:38:10.559Z,0.50
2019-01-19T03:40:51.535Z,0.40
2019-01-19T03:43:40.990Z,0.50
2019-01-19T03:46:15.418Z,0.40
2019-01-19T03:49:06.651Z,0.60
2019-01-19T03:51:56.663Z,0.70
2019-01-19T03:54:39.710Z,0.60
2019-01-19T03:57:14.050Z,0.50
2019-01-19T03:59:54.434Z,0.40
2019-01-19T04:02:26.114Z,0.50
2019-01-19T04:05:03.441Z,0.70
2019-01-19T04:07:38.011Z,0.60
2019-01-19T04:10:30.758Z,0.70
2019-01-19T04:13:05.154Z,0.80
2019-01-19T04:15:58.086Z,0.70
2019-01-19T04:18:29.793Z,0.40
2019-01-19T04:21:19.452Z,0.50
2019-01-19T04:23:51.126Z,0.40
2019-01-19T04:26:22.242Z,0.40
2019-01-19T04:28:51.101Z,0.50
2019-01-19T04:31:19.763Z,0.50
2019-01-19T04:33:48.598Z,0.60
2019-01-19T04:36:21.771Z,0.70
2019-01-19T04:38:47.736Z,0.40
2019-01-19T04:41:16.294Z,0.30
2019-01-19T04:43:44.946Z,0.50
2019-01-19T04:46:13.509Z,0.40
2019-01-19T04:48:42.422Z,0.20
2019-01-19T04:51:10.993Z,0.40
2019-01-19T04:53:39.923Z,0.30
2019-01-19T04:56:08.518Z,0.10
2019-01-19T04:58:37.078Z,0.30
2019-01-19T05:01:05.658Z,0.40
2019-01-19T05:03:34.295Z,0.50
2019-01-19T05:06:11.684Z,0.50
2019-01-19T05:08:33.106Z,0.50
2019-01-19T05:11:01.706Z,0.50
2019-01-19T05:13:30.262Z,0.30
2019-01-19T05:15:58.853Z,0.30
2019-01-19T05:18:27.682Z,0.20
2019-01-19T05:20:56.574Z,0.20
2019-01-19T05:23:25.514Z,0.20
2019-01-19T05:25:54.102Z,0.20
2019-01-19T05:28:22.737Z,0.40
2019-01-19T05:30:51.318Z,0.00
2019-01-19T05:33:19.860Z,0.10
2019-01-19T05:35:48.685Z,0.00
2019-01-19T05:38:17.244Z,0.00
2019-01-19T05:40:45.906Z,0.20
2019-01-19T05:43:14.466Z,0.10
2019-01-19T05:45:42.975Z,0.10
2019-01-19T05:48:11.539Z,-0.20
2019-01-19T05:50:40.103Z,0.00
2019-01-19T05:53:08.704Z,0.10
2019-01-19T05:55:37.294Z,0.10
2019-01-19T05:58:05.921Z,0.00
2019-01-19T06:00:35.160Z,-0.10
2019-01-19T06:03:05.105Z,-0.10
2019-01-19T06:05:33.671Z,-0.20
2019-01-19T06:08:02.255Z,-0.20
2019-01-19T06:10:30.808Z,0.00
2019-01-19T06:12:59.403Z,0.10
2019-01-19T06:15:27.984Z,-0.10
2019-01-19T06:17:56.588Z,-0.20
2019-01-19T06:20:25.166Z,-0.60
2019-01-19T06:22:53.890Z,-0.50
2019-01-19T06:25:22.464Z,-0.20
2019-01-19T06:27:51.070Z,-0.30
2019-01-19T06:30:21.585Z,-0.30
2019-01-19T06:32:50.322Z,-0.30
2019-01-19T06:35:19.175Z,-0.30
2019-01-19T06:37:47.841Z,-0.20
2019-01-19T06:40:18.576Z,-0.30
2019-01-19T06:42:47.133Z,-0.10
2019-01-19T06:45:21.626Z,-0.20
2019-01-19T06:47:50.289Z,-0.40
2019-01-19T06:50:19.291Z,-0.30
2019-01-19T06:52:48.127Z,-0.30
2019-01-19T06:55:25.732Z,-0.30
2019-01-19T06:57:54.325Z,-0.30
2019-01-19T07:00:22.886Z,-0.20
2019-01-19T07:02:51.551Z,-0.20
2019-01-19T07:05:20.115Z,-0.20
2019-01-19T07:07:48.715Z,-0.20
2019-01-19T07:10:19.992Z,-0.20
2019-01-19T07:12:48.654Z,-0.30
2019-01-19T07:15:17.365Z,-0.30
2019-01-19T07:17:46.039Z,-0.30
2019-01-19T07:20:17.406Z,-0.30
2019-01-19T07:22:46.175Z,-0.30
2019-01-19T07:25:14.808Z,-0.90
2019-01-19T07:27:43.431Z,-0.70
2019-01-19T07:30:16.678Z,-0.70
2019-01-19T07:32:46.610Z,-0.70
2019-01-19T07:35:16.020Z,-0.60
2019-01-19T07:37:44.720Z,-0.10
2019-01-19T07:40:19.524Z,-0.10
2019-01-19T07:42:49.871Z,-0.10
2019-01-19T07:45:18.459Z,-0.10
2019-01-19T07:47:47.087Z,-0.30
2019-01-19T07:50:17.990Z,-0.20
2019-01-19T07:52:46.795Z,0.00
2019-01-19T07:55:17.234Z,0.00
2019-01-19T07:57:46.057Z,0.20
2019-01-19T08:00:17.846Z,0.00
2019-01-19T08:02:46.482Z,0.10
2019-01-19T08:05:15.066Z,0.20
2019-01-19T08:07:43.568Z,0.00
2019-01-19T08:10:17.105Z,0.20
2019-01-19T08:12:45.991Z,0.40
2019-01-19T08:15:17.387Z,0.40
2019-01-19T08:17:46.187Z,0.40
2019-01-19T08:20:15.790Z,0.40
2019-01-19T08:22:44.419Z,0.50
2019-01-19T08:25:13.751Z,0.40
2019-01-19T08:27:42.375Z,0.60
2019-01-19T08:30:22.691Z,0.60
2019-01-19T08:32:51.341Z,0.80
2019-01-19T08:35:19.991Z,0.80
2019-01-19T08:37:48.830Z,0.80
2019-01-19T08:40:34.751Z,0.70
2019-01-19T08:43:05.024Z,0.70
2019-01-19T08:45:33.819Z,0.50
2019-01-19T08:48:02.988Z,0.60
2019-01-19T08:50:31.592Z,0.90
2019-01-19T08:53:00.143Z,0.90
2019-01-19T08:55:28.811Z,1.20
2019-01-19T08:57:57.370Z,0.80
2019-01-19T09:00:26.045Z,1.30
2019-01-19T09:02:55.238Z,1.50
2019-01-19T09:05:23.823Z,1.60
2019-01-19T09:07:52.327Z,1.20
2019-01-19T09:10:21.288Z,1.40
2019-01-19T09:12:49.855Z,1.20
2019-01-19T09:15:20.685Z,1.30
2019-01-19T09:17:49.302Z,1.00
2019-01-19T09:20:18.451Z,1.30
2019-01-19T09:22:49.018Z,1.80
2019-01-19T09:25:17.563Z,2.10
2019-01-19T09:27:46.119Z,2.20
2019-01-19T09:30:20.000Z,2.30
2019-01-19T09:32:48.748Z,2.70
2019-01-19T09:35:18.029Z,3.00
2019-01-19T09:37:46.976Z,2.70
2019-01-19T09:40:19.124Z,2.80
2019-01-19T09:42:47.931Z,2.30
2019-01-19T09:45:18.038Z,2.80
2019-01-19T09:47:46.770Z,3.50
2019-01-19T09:50:19.555Z,4.10
2019-01-19T09:52:48.221Z,4.40
2019-01-19T09:55:16.858Z,4.60
2019-01-19T09:57:45.510Z,4.90
2019-01-19T10:00:25.155Z,5.00
2019-01-19T10:02:53.999Z,6.20
2019-01-19T10:05:24.917Z,7.70
2019-01-19T10:07:53.581Z,9.50
2019-01-19T10:10:22.484Z,9.10
2019-01-19T10:12:51.223Z,9.70
2019-01-19T10:15:21.227Z,11.30
2019-01-19T10:17:49.902Z,11.40
2019-01-19T10:20:29.266Z,11.20
2019-01-19T10:22:57.931Z,11.60
2019-01-19T10:25:26.635Z,12.20
2019-01-19T10:27:55.235Z,12.00
2019-01-19T10:30:30.413Z,11.80
2019-01-19T10:32:59.003Z,11.00
2019-01-19T10:35:27.634Z,10.70
2019-01-19T10:38:15.638Z,9.20
2019-01-19T10:40:44.200Z,8.70
2019-01-19T10:43:12.811Z,10.90
2019-01-19T10:45:41.387Z,12.80
2019-01-19T10:48:09.985Z,13.30
2019-01-19T10:50:38.566Z,12.80
2019-01-19T10:53:07.281Z,12.40
2019-01-19T10:55:36.285Z,13.00
2019-01-19T10:58:05.538Z,12.30
2019-01-19T11:00:53.380Z,13.60
2019-01-19T11:03:21.905Z,13.90
2019-01-19T11:05:50.463Z,14.60
2019-01-19T11:08:19.041Z,14.20
2019-01-19T11:10:47.831Z,14.80
2019-01-19T11:13:16.413Z,12.50
2019-01-19T11:15:44.974Z,14.00
2019-01-19T11:18:13.651Z,12.40
2019-01-19T11:20:42.197Z,13.60
2019-01-19T11:23:10.677Z,15.00
2019-01-19T11:25:39.455Z,13.90
2019-01-19T11:28:08.075Z,15.60
2019-01-19T11:30:36.715Z,16.10
2019-01-19T11:33:05.407Z,15.60
2019-01-19T11:35:33.999Z,15.70
2019-01-19T11:38:02.490Z,14.20
2019-01-19T11:40:35.961Z,14.40
2019-01-19T11:43:06.192Z,15.60
2019-01-19T11:45:34.889Z,16.70
2019-01-19T11:48:03.809Z,17.00
2019-01-19T11:50:32.437Z,17.60
2019-01-19T11:53:00.949Z,16.20
2019-01-19T11:55:29.501Z,16.80
2019-01-19T11:58:00.811Z,16.90
2019-01-19T12:00:32.452Z,17.50
2019-01-19T12:03:01.181Z,17.80
2019-01-19T12:05:29.800Z,16.80
2019-01-19T12:07:58.457Z,17.40
2019-01-19T12:10:29.185Z,17.10
2019-01-19T12:12:58.037Z,17.30
2019-01-19T12:15:27.508Z,16.90
2019-01-19T12:17:56.209Z,16.10
2019-01-19T12:20:30.313Z,17.00
2019-01-19T12:22:58.939Z,17.40
2019-01-19T12:25:27.662Z,17.10
2019-01-19T12:27:56.213Z,17.20
2019-01-19T12:30:29.556Z,17.20
2019-01-19T12:32:58.173Z,17.50
2019-01-19T12:35:26.753Z,17.30
2019-01-19T12:37:55.653Z,16.80
2019-01-19T12:40:26.477Z,15.80
2019-01-19T12:43:03.473Z,16.00
2019-01-19T12:45:35.317Z,15.60
2019-01-19T12:48:03.871Z,15.10
2019-01-19T12:50:32.457Z,15.30
2019-01-19T12:53:00.928Z,14.50
2019-01-19T12:55:29.441Z,13.60
2019-01-19T12:57:57.999Z,13.30
2019-01-19T13:00:28.237Z,13.90
2019-01-19T13:02:57.238Z,13.50
2019-01-19T13:05:35.382Z,14.70
2019-01-19T13:08:06.677Z,16.00
2019-01-19T13:10:44.185Z,15.30
2019-01-19T13:13:12.883Z,15.50
2019-01-19T13:15:47.278Z,13.70
2019-01-19T13:18:24.799Z,15.60
2019-01-19T13:21:11.661Z,16.20
2019-01-19T13:24:07.328Z,17.10
2019-01-19T13:27:02.596Z,17.20
2019-01-19T13:29:42.734Z,16.90
2019-01-19T13:32:19.995Z,16.20
2019-01-19T13:35:08.253Z,15.70
2019-01-19T13:37:42.726Z,15.20
2019-01-19T13:40:24.618Z,15.50
2019-01-19T13:43:11.459Z,16.10
2019-01-19T13:45:46.187Z,14.60
2019-01-19T13:48:35.871Z,15.50
2019-01-19T13:51:22.431Z,16.10
2019-01-19T13:54:13.715Z,17.10
2019-01-19T13:57:02.210Z,16.70
2019-01-19T13:59:39.586Z,17.00
2019-01-19T14:02:28.993Z,16.50
2019-01-19T14:05:03.623Z,16.00
2019-01-19T14:07:57.975Z,15.10
2019-01-19T14:10:41.797Z,14.70
2019-01-19T14:13:22.235Z,15.20
2019-01-19T14:15:59.889Z,15.70
2019-01-19T14:18:31.449Z,15.40
2019-01-19T14:21:15.394Z,15.70
2019-01-19T14:24:01.789Z,15.50
2019-01-19T14:26:51.443Z,13.50
2019-01-19T14:29:25.638Z,14.00
2019-01-19T14:31:57.287Z,13.00
2019-01-19T14:34:28.925Z,12.60
2019-01-19T14:37:03.279Z,12.10
2019-01-19T14:39:55.811Z,12.10
2019-01-19T14:42:50.138Z,12.50
2019-01-19T14:45:33.723Z,12.10
2019-01-19T14:48:22.911Z,12.50
2019-01-19T14:51:09.262Z,13.10
2019-01-19T14:53:46.627Z,12.80
2019-01-19T14:56:30.010Z,11.50
2019-01-19T14:59:13.621Z,10.30
2019-01-19T15:01:53.828Z,10.20
2019-01-19T15:04:49.720Z,9.50
2019-01-19T15:07:30.647Z,9.20
2019-01-19T15:10:20.240Z,8.80
2019-01-19T15:12:57.725Z,8.20
2019-01-19T15:15:35.112Z,8.10
2019-01-19T15:18:23.261Z,7.90
2019-01-19T15:20:54.956Z,7.50
2019-01-19T15:23:29.241Z,7.40
2019-01-19T15:26:35.573Z,7.20
2019-01-19T15:29:22.489Z,6.90
2019-01-19T15:32:10.758Z,6.60
2019-01-19T15:35:15.789Z,6.60
2019-01-19T15:37:58.788Z,6.60
2019-01-19T15:40:45.342Z,6.50
2019-01-19T15:43:48.769Z,6.10
2019-01-19T15:46:23.165Z,6.10
2019-01-19T15:49:28.265Z,5.70
2019-01-19T15:51:59.934Z,5.50
2019-01-19T15:54:55.485Z,5.60
2019-01-19T15:57:29.704Z,5.60
2019-01-19T16:00:18.349Z,5.60
2019-01-19T16:03:01.843Z,5.30
2019-01-19T16:05:48.483Z,5.50
2019-01-19T16:08:31.995Z,5.50
2019-01-19T16:11:24.333Z,5.20
2019-01-19T16:14:01.533Z,5.10
2019-01-19T16:16:44.505Z,5.00
2019-01-19T16:19:25.013Z,5.00
2019-01-19T16:22:08.701Z,5.40
2019-01-19T16:24:46.121Z,5.40
2019-01-19T16:27:20.590Z,5.30
2019-01-19T16:30:25.788Z,5.10
2019-01-19T16:33:09.623Z,4.60
2019-01-19T16:36:01.115Z,4.50
2019-01-19T16:38:41.768Z,4.70
2019-01-19T16:41:31.589Z,4.60
2019-01-19T16:44:03.217Z,4.60
2019-01-19T16:46:51.426Z,4.60
2019-01-19T16:49:45.273Z,4.70
2019-01-19T16:52:31.332Z,4.30
2019-01-19T16:55:14.863Z,4.10
2019-01-19T16:58:01.851Z,4.50
2019-01-19T17:00:53.285Z,4.30
2019-01-19T17:03:34.545Z,4.10
2019-01-19T17:06:20.981Z,4.30
2019-01-19T17:09:01.534Z,4.50
2019-01-19T17:11:48.393Z,4.30
2019-01-19T17:14:39.377Z,4.30
2019-01-19T17:17:22.805Z,4.10
2019-01-19T17:20:12.589Z,4.20
2019-01-19T17:22:49.942Z,4.10
2019-01-19T17:25:38.217Z,3.90
2019-01-19T17:28:09.857Z,4.00
2019-01-19T17:30:53.609Z,4.10
2019-01-19T17:33:49.585Z,4.10
2019-01-19T17:36:23.949Z,4.30
2019-01-19T17:38:58.541Z,4.20
2019-01-19T17:41:55.689Z,4.00
2019-01-19T17:44:32.951Z,4.00
2019-01-19T17:47:04.633Z,3.90
2019-01-19T17:49:45.239Z,4.20
2019-01-19T17:52:25.925Z,4.20
2019-01-19T17:55:05.294Z,4.10
2019-01-19T17:57:46.228Z,4.00
2019-01-19T18:00:24.129Z,4.00
2019-01-19T18:02:55.813Z,4.00
2019-01-19T18:05:36.658Z,3.90
2019-01-19T18:08:29.762Z,3.70
2019-01-19T18:11:10.501Z,3.90
2019-01-19T18:14:00.546Z,3.80
2019-01-19T18:16:48.687Z,3.90
2019-01-19T18:19:22.906Z,3.80
2019-01-19T18:21:54.590Z,3.80
2019-01-19T18:24:50.217Z,3.90
2019-01-19T18:27:36.514Z,3.90
2019-01-19T18:30:26.326Z,3.80
2019-01-19T18:33:07.969Z,3.60
2019-01-19T18:35:45.809Z,3.60
2019-01-19T18:38:44.744Z,3.50
2019-01-19T18:41:21.974Z,3.60
2019-01-19T18:44:02.283Z,3.60
2019-01-19T18:46:49.066Z,3.50
2019-01-19T18:49:52.633Z,3.50
2019-01-19T18:52:30.213Z,3.40
2019-01-19T18:55:04.606Z,3.30
2019-01-19T18:57:54.561Z,3.20
2019-01-19T19:00:44.566Z,3.20
2019-01-19T19:03:49.786Z,3.10
2019-01-19T19:06:41.206Z,3.20
2019-01-19T19:09:29.182Z,3.20
2019-01-19T19:12:03.630Z,3.10
2019-01-19T19:14:49.682Z,3.00
2019-01-19T19:17:42.366Z,3.10
2019-01-19T19:20:38.188Z,3.00
2019-01-19T19:23:09.898Z,2.90
2019-01-19T19:25:53.577Z,2.80
2019-01-19T19:28:49.246Z,2.90
2019-01-19T19:31:23.758Z,2.90
2019-01-19T19:34:07.404Z,2.80
2019-01-19T19:36:45.117Z,2.60
2019-01-19T19:39:28.487Z,2.70
2019-01-19T19:42:02.654Z,2.70
2019-01-19T19:44:43.358Z,2.70
2019-01-19T19:47:23.746Z,2.70
2019-01-19T19:50:07.566Z,2.70
2019-01-19T19:52:36.158Z,2.50
2019-01-19T19:55:03.567Z,2.50
2019-01-19T19:57:32.122Z,2.40
2019-01-19T20:00:00.798Z,2.50
2019-01-19T20:02:29.298Z,2.50
2019-01-19T20:04:57.976Z,2.30
2019-01-19T20:07:26.531Z,2.10
2019-01-19T20:09:55.130Z,2.00
2019-01-19T20:12:23.708Z,2.10
2019-01-19T20:14:52.290Z,2.20
2019-01-19T20:17:20.946Z,2.20
2019-01-19T20:19:49.458Z,2.10
2019-01-19T20:22:18.022Z,2.20
2019-01-19T20:24:46.701Z,2.20
2019-01-19T20:27:15.276Z,2.30
2019-01-19T20:29:43.837Z,2.10
2019-01-19T20:32:12.416Z,2.20
2019-01-19T20:34:41.036Z,2.20
2019-01-19T20:37:09.693Z,2.10
2019-01-19T20:39:38.247Z,2.00
2019-01-19T20:42:06.914Z,2.10
2019-01-19T20:44:35.500Z,2.00
2019-01-19T20:47:04.463Z,2.00
2019-01-19T20:49:33.121Z,2.00
2019-01-19T20:52:01.671Z,2.00
2019-01-19T20:54:30.303Z,1.90
2019-01-19T20:56:58.859Z,1.90
2019-01-19T20:59:27.446Z,1.80
2019-01-19T21:01:55.946Z,1.70
2019-01-19T21:04:24.576Z,1.80
2019-01-19T21:06:53.270Z,1.80
2019-01-19T21:09:21.919Z,1.80
2019-01-19T21:11:50.467Z,1.80
2019-01-19T21:14:19.063Z,1.70
2019-01-19T21:16:47.618Z,1.60
2019-01-19T21:19:16.142Z,1.60
2019-01-19T21:21:44.702Z,1.60
2019-01-19T21:24:13.259Z,1.20
2019-01-19T21:26:41.852Z,1.60
2019-01-19T21:29:10.406Z,1.70
2019-01-19T21:31:38.994Z,1.70
2019-01-19T21:34:07.636Z,1.80
2019-01-19T21:36:36.273Z,1.70
2019-01-19T21:39:07.097Z,1.80
2019-01-19T21:41:35.675Z,1.70
2019-01-19T21:44:04.674Z,1.60
2019-01-19T21:46:33.263Z,1.70
2019-01-19T21:49:01.903Z,1.60
2019-01-19T21:51:32.757Z,1.50
2019-01-19T21:54:01.248Z,1.60
2019-01-19T21:56:29.858Z,1.70
2019-01-19T21:58:58.414Z,1.70
2019-01-19T22:01:26.935Z,1.60
2019-01-19T22:03:55.490Z,1.60
2019-01-19T22:06:24.006Z,1.50
2019-01-19T22:08:52.614Z,1.60
2019-01-19T22:11:21.230Z,1.40
2019-01-19T22:13:49.789Z,1.40
2019-01-19T22:16:18.374Z,1.20
2019-01-19T22:18:46.858Z,1.00
2019-01-19T22:21:15.455Z,1.30
2019-01-19T22:23:44.022Z,1.20
2019-01-19T22:26:14.247Z,1.10
2019-01-19T22:28:42.802Z,1.20
2019-01-19T22:31:11.390Z,1.40
2019-01-19T22:33:40.182Z,1.60
2019-01-19T22:36:08.802Z,1.40
2019-01-19T22:38:37.470Z,1.30
2019-01-19T22:41:06.090Z,1.40
2019-01-19T22:43:34.918Z,1.20
2019-01-19T22:46:03.645Z,1.30
2019-01-19T22:48:32.302Z,1.30
2019-01-19T22:51:00.934Z,1.20
2019-01-19T22:53:29.588Z,1.40
2019-01-19T22:55:58.142Z,1.40
2019-01-19T22:58:26.666Z,1.50
2019-01-19T23:01:02.738Z,1.30
2019-01-19T23:03:32.658Z,1.30
2019-01-19T23:06:01.210Z,1.10
2019-01-19T23:08:29.866Z,1.30
2019-01-19T23:11:01.326Z,1.30
2019-01-19T23:13:28.733Z,1.30
2019-01-19T23:15:57.206Z,1.40
2019-01-19T23:18:25.799Z,1.40
2019-01-19T23:20:54.424Z,1.20
2019-01-19T23:23:23.047Z,0.90
2019-01-19T23:25:51.598Z,0.40
2019-01-19T23:28:20.188Z,0.50
2019-01-19T23:30:48.811Z,0.80
2019-01-19T23:33:17.394Z,1.00
2019-01-19T23:35:45.919Z,1.00
2019-01-19T23:38:14.510Z,1.10
2019-01-19T23:40:43.068Z,1.00
2019-01-19T23:43:11.704Z,0.90
2019-01-19T23:45:40.258Z,1.00
2019-01-19T23:48:08.847Z,1.00
2019-01-19T23:50:37.430Z,0.70
2019-01-19T23:53:06.166Z,0.20
2019-01-19T23:55:34.723Z,0.50
2019-01-19T23:58:03.279Z,-0.20
